createdAt,value
2022-11-17T00:01:19.761Z,3.50
2022-11-17T00:03:47.318Z,3.67
2022-11-17T00:06:13.761Z,4.50
2022-11-17T00:08:40.197Z,4.20
2022-11-17T00:11:06.833Z,3.33
2022-11-17T00:13:52.405Z,3.10
2022-11-17T00:16:20.631Z,4.07
2022-11-17T00:19:05.680Z,4.47
2022-11-17T00:21:32.722Z,3.60
2022-11-17T00:23:59.147Z,4.67
2022-11-17T00:26:33.917Z,4.27
2022-11-17T00:29:05.815Z,4.80
2022-11-17T00:31:52.883Z,4.30
2022-11-17T00:34:21.199Z,5.03
2022-11-17T00:36:52.522Z,5.17
2022-11-17T00:39:21.477Z,4.80
2022-11-17T00:41:48.226Z,5.23
2022-11-17T00:44:14.947Z,6.83
2022-11-17T00:46:42.085Z,5.33
2022-11-17T00:49:09.164Z,5.63
2022-11-17T00:51:35.860Z,6.00
2022-11-17T00:54:02.569Z,6.23
2022-11-17T00:56:29.166Z,6.10
2022-11-17T00:58:55.977Z,6.10
2022-11-17T01:01:22.627Z,6.47
2022-11-17T01:03:49.353Z,5.50
2022-11-17T01:06:18.421Z,5.97
2022-11-17T01:08:45.318Z,7.10
2022-11-17T01:11:14.125Z,6.63
2022-11-17T01:13:41.354Z,6.33
2022-11-17T01:16:12.847Z,7.20
2022-11-17T01:18:39.704Z,7.33
2022-11-17T01:21:09.181Z,5.50
2022-11-17T01:23:37.393Z,5.80
2022-11-17T01:26:16.675Z,5.97
2022-11-17T01:28:43.609Z,6.00
2022-11-17T01:31:15.634Z,6.10
2022-11-17T01:33:42.263Z,6.23
2022-11-17T01:36:12.817Z,5.67
2022-11-17T01:38:39.244Z,6.40
2022-11-17T01:41:19.511Z,6.27
2022-11-17T01:43:46.883Z,5.67
2022-11-17T01:46:32.493Z,6.00
2022-11-17T01:49:14.042Z,6.90
2022-11-17T01:51:43.705Z,6.00
2022-11-17T01:54:11.155Z,6.20
2022-11-17T01:56:42.137Z,5.90
2022-11-17T01:59:17.050Z,5.73
2022-11-17T02:01:55.706Z,5.47
2022-11-17T02:04:29.285Z,6.47
2022-11-17T02:07:17.232Z,5.63
2022-11-17T02:09:43.843Z,6.10
2022-11-17T02:12:12.609Z,7.53
2022-11-17T02:14:39.466Z,6.13
2022-11-17T02:17:13.671Z,5.40
2022-11-17T02:19:42.367Z,7.27
2022-11-17T02:22:33.505Z,5.40
2022-11-17T02:25:51.069Z,7.27
2022-11-17T02:28:22.335Z,5.87
2022-11-17T02:31:07.515Z,6.80
2022-11-17T02:34:08.305Z,6.70
2022-11-17T02:36:42.392Z,8.17
2022-11-17T02:39:16.347Z,6.33
2022-11-17T02:42:14.543Z,5.53
2022-11-17T02:44:55.685Z,5.67
2022-11-17T02:47:30.042Z,5.87
2022-11-17T02:50:03.519Z,8.00
2022-11-17T02:52:30.185Z,7.47
2022-11-17T02:55:06.176Z,6.57
2022-11-17T02:57:37.836Z,5.77
2022-11-17T03:00:12.668Z,5.47
2022-11-17T03:02:50.648Z,7.40
2022-11-17T03:05:40.992Z,6.63
2022-11-17T03:08:19.562Z,6.10
2022-11-17T03:10:52.094Z,6.77
2022-11-17T03:13:24.036Z,7.63
2022-11-17T03:15:55.167Z,7.90
2022-11-17T03:18:29.800Z,7.83
2022-11-17T03:21:05.131Z,7.63
2022-11-17T03:23:36.627Z,8.23
2022-11-17T03:26:05.359Z,8.43
2022-11-17T03:28:32.715Z,7.67
2022-11-17T03:30:59.414Z,9.47
2022-11-17T03:33:26.512Z,8.57
2022-11-17T03:35:59.523Z,9.27
2022-11-17T03:38:27.742Z,9.33
2022-11-17T03:40:55.893Z,11.10
2022-11-17T03:43:24.182Z,11.17
2022-11-17T03:45:53.745Z,11.77
2022-11-17T03:48:28.929Z,10.67
2022-11-17T03:51:06.296Z,10.80
2022-11-17T03:53:35.012Z,11.80
2022-11-17T03:56:19.880Z,11.90
2022-11-17T03:58:54.564Z,10.53
2022-11-17T04:01:21.253Z,10.20
2022-11-17T04:03:48.299Z,11.23
2022-11-17T04:06:14.753Z,12.30
2022-11-17T04:08:41.200Z,11.37
2022-11-17T04:11:26.282Z,10.17
2022-11-17T04:14:11.346Z,12.63
2022-11-17T04:16:37.769Z,11.90
2022-11-17T04:19:04.181Z,12.37
2022-11-17T04:21:30.612Z,13.47
2022-11-17T04:23:57.890Z,12.97
2022-11-17T04:26:42.965Z,12.23
2022-11-17T04:29:09.381Z,11.53
2022-11-17T04:31:35.929Z,12.20
2022-11-17T04:34:04.352Z,12.60
2022-11-17T04:36:44.228Z,12.63
2022-11-17T04:39:12.356Z,14.50
2022-11-17T04:41:54.572Z,14.03
2022-11-17T04:44:23.334Z,14.30
2022-11-17T04:46:49.971Z,14.80
2022-11-17T04:49:17.749Z,14.67
2022-11-17T04:51:44.902Z,14.47
2022-11-17T04:54:13.355Z,12.97
2022-11-17T04:56:39.974Z,15.30
2022-11-17T04:59:06.777Z,15.77
2022-11-17T05:01:33.386Z,15.40
2022-11-17T05:04:02.067Z,15.20
2022-11-17T05:06:42.621Z,14.23
2022-11-17T05:09:16.550Z,17.00
2022-11-17T05:12:01.718Z,16.13
2022-11-17T05:14:29.318Z,18.50
2022-11-17T05:17:11.734Z,18.50
2022-11-17T05:19:46.638Z,15.93
2022-11-17T05:22:33.681Z,16.73
2022-11-17T05:25:00.524Z,15.70
2022-11-17T05:27:26.986Z,17.07
2022-11-17T05:29:53.755Z,17.47
2022-11-17T05:32:21.563Z,16.87
2022-11-17T05:34:48.108Z,16.27
2022-11-17T05:37:14.603Z,16.37
2022-11-17T05:39:41.014Z,14.23
2022-11-17T05:42:07.489Z,17.20
2022-11-17T05:44:34.222Z,16.17
2022-11-17T05:47:00.714Z,18.67
2022-11-17T05:49:27.136Z,16.97
2022-11-17T05:51:53.541Z,14.57
2022-11-17T05:54:20.474Z,17.80
2022-11-17T05:56:50.410Z,15.20
2022-11-17T05:59:34.633Z,19.13
2022-11-17T06:02:08.244Z,14.53
2022-11-17T06:04:34.772Z,15.37
2022-11-17T06:07:01.766Z,15.00
2022-11-17T06:09:31.587Z,15.23
2022-11-17T06:12:04.123Z,16.00
2022-11-17T06:14:32.409Z,16.50
2022-11-17T06:17:02.646Z,17.33
2022-11-17T06:19:34.731Z,15.23
2022-11-17T06:22:16.580Z,14.40
2022-11-17T06:24:44.753Z,14.97
2022-11-17T06:27:12.142Z,13.23
2022-11-17T06:29:43.885Z,15.13
2022-11-17T06:32:13.196Z,16.57
2022-11-17T06:34:39.715Z,14.83
2022-11-17T06:37:06.120Z,13.03
2022-11-17T06:39:32.572Z,14.77
2022-11-17T06:41:58.977Z,14.73
2022-11-17T06:44:25.400Z,13.43
2022-11-17T06:46:51.800Z,13.60
2022-11-17T06:49:18.290Z,14.53
2022-11-17T06:51:45.554Z,15.77
2022-11-17T06:54:12.863Z,14.27
2022-11-17T06:56:39.253Z,12.80
2022-11-17T06:59:05.785Z,12.90
2022-11-17T07:01:32.223Z,12.47
2022-11-17T07:03:58.659Z,14.60
2022-11-17T07:06:25.055Z,12.50
2022-11-17T07:08:51.486Z,14.63
2022-11-17T07:11:18.781Z,13.93
2022-11-17T07:13:45.240Z,13.27
2022-11-17T07:16:18.657Z,12.63
2022-11-17T07:18:48.343Z,13.70
2022-11-17T07:21:15.358Z,12.93
2022-11-17T07:23:42.962Z,13.47
2022-11-17T07:26:09.379Z,18.10
2022-11-17T07:28:36.120Z,15.13
2022-11-17T07:31:07.851Z,12.07
2022-11-17T07:33:34.715Z,14.13
2022-11-17T07:36:07.394Z,13.70
2022-11-17T07:38:35.203Z,14.10
2022-11-17T07:41:02.243Z,13.20
2022-11-17T07:43:28.814Z,13.53
2022-11-17T07:45:55.606Z,14.03
2022-11-17T07:48:22.063Z,11.87
2022-11-17T07:50:48.809Z,13.23
2022-11-17T07:53:15.465Z,13.13
2022-11-17T07:55:41.873Z,14.07
2022-11-17T07:58:08.308Z,13.07
2022-11-17T08:00:34.782Z,14.23
2022-11-17T08:03:04.880Z,14.20
2022-11-17T08:05:39.946Z,13.90
2022-11-17T08:08:09.711Z,11.33
2022-11-17T08:10:36.229Z,12.37
2022-11-17T08:13:02.703Z,13.40
2022-11-17T08:15:29.547Z,12.63
2022-11-17T08:17:57.767Z,12.60
2022-11-17T08:20:24.828Z,11.33
2022-11-17T08:22:51.956Z,12.23
2022-11-17T08:25:23.604Z,13.70
2022-11-17T08:27:52.032Z,12.83
2022-11-17T08:30:20.299Z,11.97
2022-11-17T08:32:49.216Z,11.93
2022-11-17T08:35:17.069Z,11.27
2022-11-17T08:37:43.495Z,11.97
2022-11-17T08:40:11.177Z,12.33
2022-11-17T08:42:37.894Z,12.13
2022-11-17T08:45:05.868Z,11.80
2022-11-17T08:47:32.577Z,11.03
2022-11-17T08:49:59.002Z,11.70
2022-11-17T08:52:27.516Z,11.40
2022-11-17T08:54:54.412Z,11.83
2022-11-17T08:57:23.768Z,11.20
2022-11-17T08:59:50.706Z,12.93
2022-11-17T09:02:17.458Z,10.43
2022-11-17T09:04:46.012Z,9.23
2022-11-17T09:07:12.557Z,12.07
2022-11-17T09:09:39.168Z,12.73
2022-11-17T09:12:05.843Z,11.33
2022-11-17T09:14:32.253Z,10.73
2022-11-17T09:16:58.737Z,10.40
2022-11-17T09:19:25.180Z,10.13
2022-11-17T09:21:51.583Z,11.97
2022-11-17T09:24:18.090Z,11.10
2022-11-17T09:26:44.659Z,10.23
2022-11-17T09:29:11.184Z,11.03
2022-11-17T09:31:37.815Z,11.10
2022-11-17T09:34:05.765Z,10.27
2022-11-17T09:36:32.948Z,11.47
2022-11-17T09:38:59.368Z,11.43
2022-11-17T09:41:52.459Z,9.40
2022-11-17T09:44:31.162Z,11.57
2022-11-17T09:47:02.566Z,10.57
2022-11-17T09:49:56.808Z,9.87
2022-11-17T09:52:42.811Z,9.57
2022-11-17T09:55:09.107Z,8.83
2022-11-17T09:57:48.572Z,9.87
2022-11-17T10:00:16.235Z,9.27
2022-11-17T10:02:43.237Z,10.70
2022-11-17T10:05:15.142Z,9.67
2022-11-17T10:07:53.189Z,8.50
2022-11-17T10:10:22.839Z,9.67
2022-11-17T10:12:52.705Z,9.53
2022-11-17T10:15:27.648Z,12.03
2022-11-17T10:17:54.080Z,9.50
2022-11-17T10:20:20.778Z,7.70
2022-11-17T10:22:48.259Z,8.70
2022-11-17T10:25:36.883Z,7.93
2022-11-17T10:28:04.255Z,10.47
2022-11-17T10:30:30.666Z,7.17
2022-11-17T10:32:59.057Z,6.93
2022-11-17T10:35:34.806Z,6.53
2022-11-17T10:38:22.419Z,8.43
2022-11-17T10:40:50.556Z,6.57
2022-11-17T10:43:23.284Z,7.37
2022-11-17T10:45:52.488Z,6.83
2022-11-17T10:48:21.845Z,7.00
2022-11-17T10:50:53.819Z,7.17
2022-11-17T10:53:46.210Z,7.20
2022-11-17T10:56:16.186Z,6.43
2022-11-17T10:58:56.759Z,6.77
2022-11-17T11:01:37.935Z,7.30
2022-11-17T11:04:06.389Z,7.33
2022-11-17T11:06:34.712Z,6.70
2022-11-17T11:09:12.328Z,7.70
2022-11-17T11:11:47.205Z,7.23
2022-11-17T11:14:18.555Z,5.87
2022-11-17T11:16:48.549Z,6.53
2022-11-17T11:19:17.279Z,6.23
2022-11-17T11:21:53.401Z,8.37
2022-11-17T11:24:45.345Z,5.93
2022-11-17T11:27:24.103Z,6.23
2022-11-17T11:30:04.289Z,7.47
2022-11-17T11:32:36.861Z,7.77
2022-11-17T11:35:21.769Z,6.37
2022-11-17T11:38:22.054Z,5.47
2022-11-17T11:41:11.213Z,5.33
2022-11-17T11:43:46.772Z,6.07
2022-11-17T11:46:18.915Z,5.53
2022-11-17T11:48:47.075Z,6.10
2022-11-17T11:51:29.509Z,5.80
2022-11-17T11:54:05.941Z,6.63
2022-11-17T11:56:45.946Z,7.20
2022-11-17T11:59:19.761Z,6.63
2022-11-17T12:02:11.115Z,6.40
2022-11-17T12:04:50.921Z,6.30
2022-11-17T12:07:30.635Z,7.33
2022-11-17T12:10:20.462Z,6.40
2022-11-17T12:12:47.457Z,7.23
2022-11-17T12:15:19.865Z,6.23
2022-11-17T12:17:58.986Z,6.33
2022-11-17T12:20:52.774Z,6.37
2022-11-17T12:23:40.980Z,6.90
2022-11-17T12:26:07.399Z,7.03
2022-11-17T12:28:39.056Z,5.60
2022-11-17T12:31:25.697Z,6.33
2022-11-17T12:33:52.011Z,5.60
2022-11-17T12:36:30.128Z,5.87
2022-11-17T12:39:05.432Z,5.60
2022-11-17T12:41:47.104Z,7.63
2022-11-17T12:44:32.232Z,6.17
2022-11-17T12:47:27.776Z,6.70
2022-11-17T12:50:19.073Z,6.37
2022-11-17T12:53:14.415Z,6.97
2022-11-17T12:56:07.639Z,6.93
2022-11-17T12:58:55.129Z,6.63
2022-11-17T13:01:31.385Z,7.43
2022-11-17T13:04:07.471Z,6.63
2022-11-17T13:06:35.790Z,8.10
2022-11-17T13:09:10.590Z,5.83
2022-11-17T13:11:37.004Z,7.17
2022-11-17T13:14:15.167Z,7.23
2022-11-17T13:16:51.538Z,8.27
2022-11-17T13:19:36.119Z,5.27
2022-11-17T13:22:11.756Z,6.83
2022-11-17T13:24:39.152Z,5.60
2022-11-17T13:27:15.857Z,6.43
2022-11-17T13:29:42.351Z,5.93
2022-11-17T13:32:14.338Z,6.13
2022-11-17T13:34:57.301Z,6.03
2022-11-17T13:37:28.931Z,6.47
2022-11-17T13:40:03.805Z,5.80
2022-11-17T13:42:32.283Z,6.27
2022-11-17T13:45:01.858Z,7.80
2022-11-17T13:47:49.145Z,6.53
2022-11-17T13:50:27.639Z,5.53
2022-11-17T13:52:55.901Z,5.87
2022-11-17T13:55:23.260Z,6.90
2022-11-17T13:58:01.834Z,7.90
2022-11-17T14:00:29.552Z,6.77
2022-11-17T14:03:05.989Z,5.20
2022-11-17T14:05:33.101Z,7.40
2022-11-17T14:08:12.056Z,5.30
2022-11-17T14:10:39.270Z,4.97
2022-11-17T14:13:05.590Z,5.87
2022-11-17T14:15:37.657Z,5.27
2022-11-17T14:18:16.242Z,6.33
2022-11-17T14:20:43.134Z,5.53
2022-11-17T14:23:12.523Z,5.60
2022-11-17T14:25:44.493Z,5.73
2022-11-17T14:28:19.623Z,5.20
2022-11-17T14:30:50.616Z,5.70
2022-11-17T14:33:17.172Z,4.97
2022-11-17T14:35:44.758Z,5.47
2022-11-17T14:38:17.395Z,5.10
2022-11-17T14:40:43.963Z,5.80
2022-11-17T14:43:10.401Z,5.43
2022-11-17T14:45:36.832Z,5.33
2022-11-17T14:48:06.001Z,5.30
2022-11-17T14:50:32.428Z,6.50
2022-11-17T14:52:58.920Z,5.20
2022-11-17T14:55:26.415Z,5.13
2022-11-17T14:57:52.868Z,4.67
2022-11-17T15:00:20.815Z,5.43
2022-11-17T15:02:47.764Z,4.57
2022-11-17T15:05:14.678Z,5.37
2022-11-17T15:07:41.186Z,5.23
2022-11-17T15:10:08.908Z,4.77
2022-11-17T15:12:35.415Z,5.03
2022-11-17T15:15:01.851Z,5.10
2022-11-17T15:17:28.357Z,5.80
2022-11-17T15:19:55.105Z,4.93
2022-11-17T15:22:21.586Z,5.20
2022-11-17T15:24:48.127Z,4.93
2022-11-17T15:27:14.853Z,5.93
2022-11-17T15:29:41.278Z,4.53
2022-11-17T15:32:08.095Z,6.03
2022-11-17T15:34:35.546Z,4.30
2022-11-17T15:37:01.943Z,6.03
2022-11-17T15:39:28.351Z,4.93
2022-11-17T15:41:54.927Z,5.00
2022-11-17T15:44:21.381Z,5.67
2022-11-17T15:46:48.150Z,7.10
2022-11-17T15:49:15.269Z,4.87
2022-11-17T15:51:41.947Z,5.40
2022-11-17T15:54:16.392Z,4.57
2022-11-17T15:56:46.279Z,6.30
2022-11-17T15:59:12.821Z,5.50
2022-11-17T16:01:40.089Z,4.37
2022-11-17T16:04:08.706Z,5.60
2022-11-17T16:06:37.191Z,4.97
2022-11-17T16:09:04.757Z,5.10
2022-11-17T16:11:31.260Z,4.97
2022-11-17T16:13:59.004Z,6.90
2022-11-17T16:16:28.489Z,7.00
2022-11-17T16:18:55.018Z,5.83
2022-11-17T16:21:21.466Z,5.13
2022-11-17T16:23:55.966Z,5.13
2022-11-17T16:26:25.686Z,6.13
2022-11-17T16:29:02.029Z,5.57
2022-11-17T16:31:30.461Z,5.33
2022-11-17T16:33:59.200Z,5.77
2022-11-17T16:36:31.254Z,5.17
2022-11-17T16:39:02.120Z,4.73
2022-11-17T16:41:34.279Z,6.03
2022-11-17T16:44:01.914Z,5.30
2022-11-17T16:46:30.524Z,6.63
2022-11-17T16:49:01.229Z,5.93
2022-11-17T16:51:27.878Z,5.93
2022-11-17T16:53:56.321Z,4.90
2022-11-17T16:56:22.795Z,5.57
2022-11-17T16:58:50.168Z,7.17
2022-11-17T17:01:22.128Z,5.20
2022-11-17T17:03:48.596Z,5.33
2022-11-17T17:06:17.516Z,4.60
2022-11-17T17:08:44.395Z,4.67
2022-11-17T17:11:15.826Z,6.80
2022-11-17T17:13:42.993Z,4.93
2022-11-17T17:16:12.862Z,4.47
2022-11-17T17:18:39.901Z,5.33
2022-11-17T17:21:06.794Z,4.47
2022-11-17T17:23:34.781Z,4.90
2022-11-17T17:26:01.180Z,4.87
2022-11-17T17:28:29.976Z,5.30
2022-11-17T17:30:56.411Z,5.13
2022-11-17T17:33:22.843Z,4.87
2022-11-17T17:35:49.269Z,4.77
2022-11-17T17:38:15.672Z,5.47
2022-11-17T17:40:42.126Z,4.93
2022-11-17T17:43:08.619Z,4.77
2022-11-17T17:45:37.701Z,4.90
2022-11-17T17:48:05.210Z,5.27
2022-11-17T17:50:31.690Z,5.43
2022-11-17T17:52:58.100Z,4.63
2022-11-17T17:55:24.510Z,5.67
2022-11-17T17:57:50.904Z,5.27
2022-11-17T18:00:17.841Z,4.23
2022-11-17T18:02:44.320Z,4.00
2022-11-17T18:05:10.789Z,4.87
2022-11-17T18:07:37.268Z,4.90
2022-11-17T18:10:03.897Z,4.63
2022-11-17T18:12:30.291Z,4.63
2022-11-17T18:14:56.760Z,5.17
2022-11-17T18:17:23.164Z,4.67
2022-11-17T18:19:49.564Z,4.50
2022-11-17T18:22:16.125Z,5.73
2022-11-17T18:24:42.540Z,4.87
2022-11-17T18:27:09.203Z,4.30
2022-11-17T18:29:35.601Z,5.73
2022-11-17T18:32:02.026Z,5.17
2022-11-17T18:34:28.440Z,5.10
2022-11-17T18:36:55.664Z,4.73
2022-11-17T18:39:22.213Z,4.70
2022-11-17T18:41:48.701Z,5.47
2022-11-17T18:44:17.037Z,5.13
2022-11-17T18:46:43.501Z,5.10
2022-11-17T18:49:10.052Z,5.03
2022-11-17T18:51:36.490Z,4.70
2022-11-17T18:54:03.581Z,5.97
2022-11-17T18:56:35.546Z,4.63
2022-11-17T18:59:02.688Z,4.90
2022-11-17T19:01:29.915Z,5.23
2022-11-17T19:03:58.247Z,5.13
2022-11-17T19:06:25.396Z,5.03
2022-11-17T19:08:52.291Z,4.63
2022-11-17T19:11:20.032Z,5.03
2022-11-17T19:13:46.654Z,5.00
2022-11-17T19:16:15.201Z,4.53
2022-11-17T19:18:42.395Z,5.07
2022-11-17T19:21:20.165Z,5.07
2022-11-17T19:23:51.480Z,4.80
2022-11-17T19:26:23.789Z,4.97
2022-11-17T19:28:50.466Z,4.90
2022-11-17T19:31:19.656Z,5.30
2022-11-17T19:33:47.521Z,4.47
2022-11-17T19:36:16.177Z,4.73
2022-11-17T19:38:43.418Z,4.90
2022-11-17T19:41:12.592Z,5.57
2022-11-17T19:43:44.809Z,5.20
2022-11-17T19:46:16.651Z,5.53
2022-11-17T19:48:44.212Z,6.50
2022-11-17T19:51:19.684Z,5.77
2022-11-17T19:53:47.309Z,5.57
2022-11-17T19:56:14.166Z,4.80
2022-11-17T19:58:41.195Z,5.87
2022-11-17T20:01:13.214Z,5.90
2022-11-17T20:03:40.227Z,4.93
2022-11-17T20:06:07.417Z,4.73
2022-11-17T20:08:33.983Z,5.63
2022-11-17T20:11:14.086Z,5.07
2022-11-17T20:13:41.402Z,7.13
2022-11-17T20:16:12.419Z,5.50
2022-11-17T20:18:40.132Z,5.10
2022-11-17T20:21:06.783Z,5.00
2022-11-17T20:23:34.589Z,5.27
2022-11-17T20:26:18.843Z,5.00
2022-11-17T20:28:45.448Z,5.30
2022-11-17T20:31:14.272Z,4.37
2022-11-17T20:33:42.574Z,5.73
2022-11-17T20:36:11.832Z,4.47
2022-11-17T20:38:38.671Z,4.67
2022-11-17T20:41:05.453Z,5.00
2022-11-17T20:43:32.537Z,4.90
2022-11-17T20:45:59.237Z,4.97
2022-11-17T20:48:26.199Z,5.43
2022-11-17T20:50:59.496Z,4.73
2022-11-17T20:53:27.015Z,4.63
2022-11-17T20:55:57.340Z,5.03
2022-11-17T20:58:27.286Z,4.33
2022-11-17T21:00:54.298Z,4.90
2022-11-17T21:03:20.835Z,4.40
2022-11-17T21:05:58.399Z,5.20
2022-11-17T21:08:26.797Z,5.77
2022-11-17T21:11:32.859Z,5.60
2022-11-17T21:13:59.606Z,4.53
2022-11-17T21:16:26.056Z,5.53
2022-11-17T21:18:52.521Z,4.70
2022-11-17T21:21:18.937Z,4.93
2022-11-17T21:23:45.459Z,4.97
2022-11-17T21:26:14.597Z,4.33
2022-11-17T21:28:41.409Z,5.23
2022-11-17T21:31:10.691Z,4.17
2022-11-17T21:33:37.531Z,4.63
2022-11-17T21:36:09.511Z,5.33
2022-11-17T21:38:36.821Z,6.20
2022-11-17T21:41:07.662Z,5.70
2022-11-17T21:43:36.337Z,4.73
2022-11-17T21:46:03.911Z,5.17
2022-11-17T21:48:30.402Z,5.63
2022-11-17T21:50:56.877Z,4.77
2022-11-17T21:53:23.293Z,4.87
2022-11-17T21:55:49.765Z,5.23
2022-11-17T21:58:16.170Z,5.00
2022-11-17T22:00:42.698Z,4.87
2022-11-17T22:03:09.220Z,4.73
2022-11-17T22:05:35.795Z,6.33
2022-11-17T22:08:02.356Z,5.10
2022-11-17T22:10:28.810Z,4.90
2022-11-17T22:12:55.209Z,5.43
2022-11-17T22:15:21.638Z,4.97
2022-11-17T22:17:48.686Z,4.50
2022-11-17T22:20:15.420Z,6.13
2022-11-17T22:22:41.930Z,7.03
2022-11-17T22:25:30.268Z,5.30
2022-11-17T22:27:55.154Z,6.43
2022-11-17T22:30:21.630Z,5.73
2022-11-17T22:32:48.029Z,5.90
2022-11-17T22:35:14.547Z,5.97
2022-11-17T22:37:40.932Z,5.20
2022-11-17T22:40:07.635Z,5.67
2022-11-17T22:42:34.036Z,6.00
2022-11-17T22:45:00.441Z,5.83
2022-11-17T22:47:26.834Z,6.10
2022-11-17T22:49:53.239Z,5.23
2022-11-17T22:52:19.641Z,7.30
2022-11-17T22:54:46.044Z,6.73
2022-11-17T22:57:12.433Z,6.57
2022-11-17T22:59:38.837Z,5.77
2022-11-17T23:02:05.250Z,5.80
2022-11-17T23:04:31.680Z,6.93
2022-11-17T23:06:58.138Z,5.77
2022-11-17T23:09:24.605Z,7.13
2022-11-17T23:11:51.055Z,5.97
2022-11-17T23:14:17.479Z,6.13
2022-11-17T23:16:43.909Z,6.57
2022-11-17T23:19:12.497Z,6.30
2022-11-17T23:21:38.937Z,6.23
2022-11-17T23:24:05.726Z,7.13
2022-11-17T23:26:32.241Z,6.63
2022-11-17T23:28:58.843Z,6.43
2022-11-17T23:31:27.710Z,6.43
2022-11-17T23:33:55.211Z,6.97
2022-11-17T23:36:22.199Z,6.07
2022-11-17T23:38:49.323Z,6.67
2022-11-17T23:41:17.667Z,6.40
2022-11-17T23:43:44.097Z,6.60
2022-11-17T23:46:13.055Z,5.93
2022-11-17T23:48:39.753Z,5.83
2022-11-17T23:51:08.019Z,6.83
2022-11-17T23:53:34.607Z,6.50
2022-11-17T23:56:01.395Z,6.40
2022-11-17T23:58:28.458Z,7.33
